createdAt,value
2022-12-05T00:00:04.884Z,97.31
2022-12-05T00:01:04.836Z,97.31
2022-12-05T00:02:04.755Z,97.31
2022-12-05T00:03:04.656Z,97.31
2022-12-05T00:04:04.663Z,97.41
2022-12-05T00:05:04.527Z,97.31
2022-12-05T00:06:04.536Z,97.31
2022-12-05T00:07:04.428Z,97.41
2022-12-05T00:08:04.480Z,97.62
2022-12-05T00:09:04.304Z,97.52
2022-12-05T00:10:04.202Z,97.41
2022-12-05T00:11:04.170Z,97.52
2022-12-05T00:12:08.114Z,97.41
2022-12-05T00:13:04.069Z,97.31
2022-12-05T00:14:04.007Z,97.20
2022-12-05T00:15:03.907Z,97.31
2022-12-05T00:16:03.873Z,97.31
2022-12-05T00:17:03.838Z,97.31
2022-12-05T00:18:03.738Z,97.31
2022-12-05T00:19:03.652Z,97.41
2022-12-05T00:20:03.836Z,97.62
2022-12-05T00:21:03.586Z,97.83
2022-12-05T00:22:03.430Z,97.83
2022-12-05T00:23:03.398Z,97.72
2022-12-05T00:24:03.367Z,97.72
2022-12-05T00:25:03.301Z,97.72
2022-12-05T00:26:03.226Z,97.62
2022-12-05T00:27:03.165Z,97.72
2022-12-05T00:28:03.048Z,97.83
2022-12-05T00:29:03.082Z,97.77
2022-12-05T00:30:02.951Z,97.67
2022-12-05T00:31:02.883Z,97.67
2022-12-05T00:32:02.879Z,97.67
2022-12-05T00:33:02.751Z,97.88
2022-12-05T00:34:02.686Z,97.98
2022-12-05T00:35:02.632Z,98.08
2022-12-05T00:36:02.568Z,98.19
2022-12-05T00:37:02.494Z,98.19
2022-12-05T00:38:02.424Z,98.29
2022-12-05T00:39:02.371Z,98.29
2022-12-05T00:40:02.308Z,98.19
2022-12-05T00:41:02.208Z,98.08
2022-12-05T00:42:02.495Z,98.08
2022-12-05T00:43:02.102Z,97.98
2022-12-05T00:44:02.069Z,97.77
2022-12-05T00:45:01.974Z,97.88
2022-12-05T00:46:01.972Z,97.88
2022-12-05T00:47:01.872Z,97.83
2022-12-05T00:48:04.207Z,97.83
2022-12-05T00:49:01.714Z,97.72
2022-12-05T00:50:01.658Z,97.72
2022-12-05T00:51:01.585Z,97.62
2022-12-05T00:52:01.521Z,97.72
2022-12-05T00:53:01.492Z,97.52
2022-12-05T00:54:01.422Z,97.52
2022-12-05T00:55:01.363Z,97.31
2022-12-05T00:56:01.235Z,97.20
2022-12-05T00:57:01.207Z,97.14
2022-12-05T00:58:01.108Z,97.20
2022-12-05T00:59:01.100Z,97.20
2022-12-05T01:00:01.000Z,97.20
2022-12-05T01:01:00.943Z,97.20
2022-12-05T01:02:00.880Z,97.31
2022-12-05T01:03:00.815Z,97.20
2022-12-05T01:04:00.773Z,97.10
2022-12-05T01:05:00.682Z,97.10
2022-12-05T01:06:01.869Z,97.20
2022-12-05T01:07:00.563Z,97.10
2022-12-05T01:08:00.606Z,97.10
2022-12-05T01:09:00.405Z,97.00
2022-12-05T01:10:00.388Z,97.00
2022-12-05T01:11:00.308Z,97.10
2022-12-05T01:12:00.222Z,97.10
2022-12-05T01:13:00.143Z,97.10
2022-12-05T01:14:00.095Z,97.00
2022-12-05T01:15:00.026Z,97.00
2022-12-05T01:15:59.949Z,97.00
2022-12-05T01:17:00.286Z,97.00
2022-12-05T01:17:59.859Z,97.10
2022-12-05T01:18:59.782Z,96.79
2022-12-05T01:19:59.981Z,96.58
2022-12-05T01:20:59.681Z,96.48
2022-12-05T01:21:59.561Z,96.58
2022-12-05T01:22:59.526Z,96.58
2022-12-05T01:23:59.482Z,96.69
2022-12-05T01:24:59.400Z,96.69
2022-12-05T01:25:59.375Z,96.79
2022-12-05T01:26:59.313Z,96.79
2022-12-05T01:27:59.184Z,96.79
2022-12-05T01:28:59.166Z,96.89
2022-12-05T01:29:59.378Z,97.00
2022-12-05T01:30:59.015Z,97.20
2022-12-05T01:31:59.019Z,97.00
2022-12-05T01:32:58.880Z,96.79
2022-12-05T01:33:58.874Z,96.79
2022-12-05T01:34:58.751Z,96.79
2022-12-05T01:35:58.719Z,96.69
2022-12-05T01:36:58.604Z,96.58
2022-12-05T01:37:58.578Z,96.48
2022-12-05T01:38:58.553Z,96.48
2022-12-05T01:39:58.816Z,96.69
2022-12-05T01:40:58.383Z,96.79
2022-12-05T01:41:58.334Z,96.69
2022-12-05T01:42:58.262Z,96.48
2022-12-05T01:43:58.203Z,96.48
2022-12-05T01:44:58.108Z,96.48
2022-12-05T01:45:58.170Z,96.37
2022-12-05T01:46:57.952Z,96.26
2022-12-05T01:47:58.513Z,96.37
2022-12-05T01:48:57.877Z,96.48
2022-12-05T01:49:58.016Z,96.58
2022-12-05T01:50:57.742Z,96.69
2022-12-05T01:51:57.677Z,96.79
2022-12-05T01:52:57.558Z,96.79
2022-12-05T01:53:57.511Z,96.79
2022-12-05T01:54:57.434Z,96.89
2022-12-05T01:55:57.430Z,96.79
2022-12-05T01:56:57.328Z,96.79
2022-12-05T01:57:57.294Z,97.00
2022-12-05T01:58:57.231Z,97.20
2022-12-05T01:59:57.468Z,97.31
2022-12-05T02:00:57.053Z,97.31
2022-12-05T02:01:57.060Z,97.31
2022-12-05T02:02:57.013Z,97.41
2022-12-05T02:03:56.889Z,97.31
2022-12-05T02:04:56.812Z,97.20
2022-12-05T02:05:56.777Z,97.10
2022-12-05T02:06:56.662Z,97.20
2022-12-05T02:07:56.671Z,97.20
2022-12-05T02:08:56.586Z,97.31
2022-12-05T02:09:56.971Z,97.20
2022-12-05T02:10:56.427Z,97.10
2022-12-05T02:11:56.362Z,97.10
2022-12-05T02:12:56.272Z,97.20
2022-12-05T02:13:56.243Z,97.10
2022-12-05T02:14:56.171Z,97.20
2022-12-05T02:15:57.198Z,97.20
2022-12-05T02:16:56.098Z,97.20
2022-12-05T02:20:14.406Z,97.31
2022-12-05T02:21:15.352Z,97.20
2022-12-05T02:22:15.288Z,97.41
2022-12-05T02:23:15.227Z,97.41
2022-12-05T02:24:15.189Z,97.31
2022-12-05T02:25:15.141Z,97.41
2022-12-05T02:26:15.034Z,97.52
2022-12-05T02:27:14.996Z,97.72
2022-12-05T02:28:14.880Z,97.72
2022-12-05T02:29:14.813Z,97.62
2022-12-05T02:30:14.764Z,97.52
2022-12-05T02:31:14.778Z,97.62
2022-12-05T02:32:14.641Z,97.62
2022-12-05T02:33:14.592Z,97.52
2022-12-05T02:34:14.491Z,97.52
2022-12-05T02:35:14.460Z,97.52
2022-12-05T02:36:14.387Z,97.62
2022-12-05T02:37:14.304Z,97.77
2022-12-05T02:38:14.265Z,97.88
2022-12-05T02:39:14.170Z,97.98
2022-12-05T02:40:14.133Z,98.19
2022-12-05T02:41:14.091Z,98.29
2022-12-05T02:42:14.001Z,98.29
2022-12-05T02:43:13.975Z,98.39
2022-12-05T02:44:13.871Z,98.50
2022-12-05T02:45:13.804Z,98.50
2022-12-05T02:46:13.926Z,98.50
2022-12-05T02:47:13.680Z,98.50
2022-12-05T02:48:13.638Z,98.50
2022-12-05T02:49:14.040Z,98.60
2022-12-05T02:50:13.462Z,98.71
2022-12-05T02:51:13.402Z,98.71
2022-12-05T02:52:13.387Z,98.60
2022-12-05T02:53:13.266Z,98.60
2022-12-05T02:54:13.222Z,98.60
2022-12-05T02:55:13.179Z,98.60
2022-12-05T02:56:13.143Z,98.71
2022-12-05T02:57:13.030Z,98.71
2022-12-05T02:58:12.939Z,98.71
2022-12-05T02:59:14.362Z,98.71
2022-12-05T03:00:12.838Z,98.82
2022-12-05T03:01:12.844Z,98.71
2022-12-05T03:02:12.679Z,98.71
2022-12-05T03:03:12.643Z,98.92
2022-12-05T03:04:12.635Z,98.92
2022-12-05T03:05:12.508Z,98.92
2022-12-05T03:06:12.425Z,98.82
2022-12-05T03:07:12.389Z,98.86
2022-12-05T03:08:12.389Z,98.86
2022-12-05T03:09:12.237Z,98.86
2022-12-05T03:10:12.218Z,98.75
2022-12-05T03:11:12.157Z,98.75
2022-12-05T03:12:12.063Z,98.75
2022-12-05T03:13:12.016Z,98.86
2022-12-05T03:14:11.966Z,98.86
2022-12-05T03:15:11.891Z,98.96
2022-12-05T03:16:11.841Z,98.96
2022-12-05T03:17:11.769Z,99.07
2022-12-05T03:18:11.678Z,99.17
2022-12-05T03:19:11.650Z,99.17
2022-12-05T03:20:11.529Z,99.07
2022-12-05T03:21:11.455Z,99.07
2022-12-05T03:22:11.420Z,99.07
2022-12-05T03:23:11.382Z,99.17
2022-12-05T03:24:11.294Z,99.27
2022-12-05T03:25:11.214Z,99.27
2022-12-05T03:26:11.207Z,99.38
2022-12-05T03:27:11.101Z,99.43
2022-12-05T03:28:11.030Z,99.32
2022-12-05T03:29:10.943Z,99.32
2022-12-05T03:30:10.900Z,99.32
2022-12-05T03:31:11.009Z,99.32
2022-12-05T03:32:10.754Z,99.32
2022-12-05T03:33:10.712Z,99.32
2022-12-05T03:34:10.657Z,99.32
2022-12-05T03:35:10.555Z,99.43
2022-12-05T03:36:10.526Z,99.53
2022-12-05T03:37:10.480Z,99.53
2022-12-05T03:38:10.367Z,99.53
2022-12-05T03:39:10.331Z,99.53
2022-12-05T03:40:10.259Z,99.53
2022-12-05T03:41:10.172Z,99.68
2022-12-05T03:42:10.128Z,99.68
2022-12-05T03:43:10.088Z,99.79
2022-12-05T03:44:10.028Z,99.79
2022-12-05T03:45:09.930Z,99.79
2022-12-05T03:46:09.907Z,99.79
2022-12-05T03:47:09.782Z,99.89
2022-12-05T03:48:09.759Z,99.89
2022-12-05T03:49:09.719Z,99.89
2022-12-05T03:50:09.616Z,99.99
2022-12-05T03:51:09.618Z,99.99
2022-12-05T03:52:09.509Z,99.99
2022-12-05T03:53:19.589Z,99.99
2022-12-05T03:54:09.364Z,99.99
2022-12-05T03:55:09.318Z,99.99
2022-12-05T03:56:09.256Z,99.99
2022-12-05T03:57:09.190Z,99.99
2022-12-05T03:58:09.099Z,99.99
2022-12-05T03:59:09.032Z,99.99
2022-12-05T04:00:08.943Z,99.99
2022-12-05T04:01:09.021Z,99.99
2022-12-05T04:02:08.841Z,99.99
2022-12-05T04:03:08.842Z,99.99
2022-12-05T04:04:08.733Z,99.99
2022-12-05T04:05:08.649Z,99.99
2022-12-05T04:06:08.582Z,99.99
2022-12-05T04:07:08.538Z,99.99
2022-12-05T04:08:08.522Z,99.99
2022-12-05T04:09:12.381Z,99.99
2022-12-05T04:10:08.327Z,99.99
2022-12-05T04:11:08.287Z,99.99
2022-12-05T04:12:08.171Z,99.99
2022-12-05T04:13:08.150Z,99.99
2022-12-05T04:14:08.037Z,99.99
2022-12-05T04:15:08.007Z,99.99
2022-12-05T04:16:08.023Z,99.99
2022-12-05T04:17:07.897Z,99.99
2022-12-05T04:18:07.778Z,99.99
2022-12-05T04:19:07.734Z,99.99
2022-12-05T04:20:07.645Z,99.99
2022-12-05T04:21:07.614Z,99.99
2022-12-05T04:22:07.520Z,99.99
2022-12-05T04:23:07.515Z,99.99
2022-12-05T04:24:07.389Z,99.99
2022-12-05T04:25:28.338Z,99.99
2022-12-05T04:26:07.295Z,99.99
2022-12-05T04:27:07.253Z,99.99
2022-12-05T04:28:07.161Z,99.99
2022-12-05T04:29:07.115Z,99.99
2022-12-05T04:30:07.016Z,99.99
2022-12-05T04:31:07.105Z,99.99
2022-12-05T04:32:06.923Z,99.99
2022-12-05T04:33:06.857Z,99.99
2022-12-05T04:34:06.759Z,99.99
2022-12-05T04:35:06.705Z,99.99
2022-12-05T04:36:06.637Z,99.99
2022-12-05T04:37:06.618Z,99.99
2022-12-05T04:38:06.520Z,99.99
2022-12-05T04:39:06.482Z,99.99
2022-12-05T04:40:06.404Z,99.99
2022-12-05T04:41:06.328Z,99.99
2022-12-05T04:42:06.247Z,99.99
2022-12-05T04:46:33.886Z,99.99
2022-12-05T04:47:34.785Z,99.99
2022-12-05T04:48:34.724Z,99.99
2022-12-05T04:49:34.686Z,99.99
2022-12-05T04:50:34.622Z,99.99
2022-12-05T04:51:34.967Z,99.99
2022-12-05T04:52:34.489Z,99.99
2022-12-05T04:53:34.403Z,99.99
2022-12-05T04:54:34.309Z,99.99
2022-12-05T04:55:34.268Z,99.99
2022-12-05T04:56:34.184Z,99.99
2022-12-05T04:57:34.445Z,99.99
2022-12-05T04:58:34.047Z,99.99
2022-12-05T04:59:34.008Z,99.99
2022-12-05T05:00:33.924Z,99.99
2022-12-05T05:01:33.923Z,99.99
2022-12-05T05:02:33.891Z,99.99
2022-12-05T05:03:36.157Z,99.99
2022-12-05T05:04:33.683Z,99.99
2022-12-05T05:05:33.642Z,99.99
2022-12-05T05:06:33.579Z,99.99
2022-12-05T05:07:33.497Z,99.99
2022-12-05T05:08:33.423Z,99.99
2022-12-05T05:09:33.363Z,99.99
2022-12-05T05:10:33.265Z,99.99
2022-12-05T05:11:33.245Z,99.99
2022-12-05T05:12:33.140Z,99.99
2022-12-05T05:13:33.100Z,99.99
2022-12-05T05:14:33.034Z,99.99
2022-12-05T05:15:32.953Z,99.99
2022-12-05T05:16:33.043Z,99.99
2022-12-05T05:17:32.815Z,99.99
2022-12-05T05:18:32.753Z,99.99
2022-12-05T05:19:32.716Z,99.99
2022-12-05T05:20:32.670Z,99.99
2022-12-05T05:21:32.601Z,99.99
2022-12-05T05:22:32.513Z,99.99
2022-12-05T05:23:32.423Z,99.99
2022-12-05T05:24:32.415Z,99.99
2022-12-05T05:25:32.301Z,99.99
2022-12-05T05:26:32.259Z,99.99
2022-12-05T05:27:32.199Z,99.99
2022-12-05T05:28:32.123Z,99.99
2022-12-05T05:29:32.106Z,99.99
2022-12-05T05:30:32.006Z,99.99
2022-12-05T05:31:31.978Z,99.99
2022-12-05T05:32:31.873Z,99.99
2022-12-05T05:33:31.791Z,99.99
2022-12-05T05:34:31.737Z,99.99
2022-12-05T05:35:31.669Z,99.99
2022-12-05T05:36:31.579Z,99.99
2022-12-05T05:37:31.599Z,99.99
2022-12-05T05:38:31.500Z,99.99
2022-12-05T05:39:31.422Z,99.99
2022-12-05T05:40:31.371Z,99.99
2022-12-05T05:41:31.288Z,99.99
2022-12-05T05:42:31.191Z,99.99
2022-12-05T05:43:31.154Z,99.99
2022-12-05T05:44:31.087Z,99.99
2022-12-05T05:45:31.057Z,99.99
2022-12-05T05:46:31.028Z,99.99
2022-12-05T05:47:30.891Z,99.99
2022-12-05T05:48:30.850Z,99.99
2022-12-05T05:49:30.753Z,99.99
2022-12-05T05:50:30.671Z,99.99
2022-12-05T05:51:30.626Z,99.99
2022-12-05T05:52:30.564Z,99.99
2022-12-05T05:53:30.502Z,99.99
2022-12-05T05:54:30.417Z,99.99
2022-12-05T05:55:30.374Z,99.99
2022-12-05T05:56:30.278Z,99.99
2022-12-05T05:57:55.484Z,99.99
2022-12-05T05:58:30.181Z,99.99
2022-12-05T05:59:30.093Z,99.99
2022-12-05T06:00:30.101Z,99.99
2022-12-05T06:01:29.960Z,99.99
2022-12-05T06:02:29.968Z,99.99
2022-12-05T06:03:30.076Z,99.99
2022-12-05T06:04:29.852Z,99.99
2022-12-05T06:05:29.720Z,99.99
2022-12-05T06:06:29.659Z,99.99
2022-12-05T06:07:29.654Z,99.99
2022-12-05T06:08:29.559Z,99.99
2022-12-05T06:09:29.473Z,99.99
2022-12-05T06:10:29.401Z,99.99
2022-12-05T06:11:29.334Z,99.99
2022-12-05T06:12:29.266Z,99.99
2022-12-05T06:13:29.194Z,99.99
2022-12-05T06:14:29.170Z,99.99
2022-12-05T06:15:31.465Z,99.99
2022-12-05T06:16:29.094Z,99.99
2022-12-05T06:17:28.946Z,99.99
2022-12-05T06:18:28.882Z,99.99
2022-12-05T06:19:28.850Z,99.99
2022-12-05T06:20:28.754Z,99.99
2022-12-05T06:21:28.742Z,99.99
2022-12-05T06:22:28.653Z,99.99
2022-12-05T06:23:28.561Z,99.99
2022-12-05T06:24:28.473Z,99.99
2022-12-05T06:25:28.458Z,99.99
2022-12-05T06:26:28.367Z,99.99
2022-12-05T06:27:28.375Z,99.99
2022-12-05T06:28:28.233Z,99.99
2022-12-05T06:29:32.400Z,99.99
2022-12-05T06:30:28.085Z,99.99
2022-12-05T06:31:28.077Z,99.99
2022-12-05T06:32:28.025Z,99.99
2022-12-05T06:33:29.057Z,99.99
2022-12-05T06:34:28.686Z,99.99
2022-12-05T06:35:29.032Z,99.99
2022-12-05T06:36:28.689Z,99.99
2022-12-05T06:37:28.468Z,99.99
2022-12-05T06:38:27.538Z,99.99
2022-12-05T06:39:27.491Z,99.99
2022-12-05T06:40:27.671Z,99.99
2022-12-05T06:41:27.349Z,99.99
2022-12-05T06:42:27.359Z,99.99
2022-12-05T06:43:27.233Z,99.99
2022-12-05T06:44:27.171Z,99.99
2022-12-05T06:45:27.146Z,99.99
2022-12-05T06:46:27.110Z,99.99
2022-12-05T06:47:26.945Z,99.99
2022-12-05T06:48:26.894Z,99.99
2022-12-05T06:49:31.725Z,99.99
2022-12-05T06:50:26.760Z,99.99
2022-12-05T06:51:26.691Z,99.99
2022-12-05T06:52:26.620Z,99.99
2022-12-05T06:53:26.560Z,99.99
2022-12-05T06:54:26.502Z,99.99
2022-12-05T06:55:26.442Z,99.99
2022-12-05T06:56:26.370Z,99.99
2022-12-05T06:57:26.294Z,99.99
2022-12-05T06:58:26.233Z,99.99
2022-12-05T06:59:26.167Z,99.99
2022-12-05T07:00:26.131Z,99.99
2022-12-05T07:01:26.113Z,99.99
2022-12-05T07:02:26.037Z,99.99
2022-12-05T07:03:26.204Z,99.99
2022-12-05T07:04:25.873Z,99.99
2022-12-05T07:05:25.815Z,99.99
2022-12-05T07:06:25.686Z,99.99
2022-12-05T07:07:26.100Z,99.99
2022-12-05T07:08:25.615Z,99.99
2022-12-05T07:09:25.543Z,99.99
2022-12-05T07:10:25.456Z,99.99
2022-12-05T07:11:25.416Z,99.99
2022-12-05T07:12:25.319Z,99.99
2022-12-05T07:13:25.286Z,99.99
2022-12-05T07:14:46.359Z,99.99
2022-12-05T07:15:25.152Z,99.99
2022-12-05T07:16:25.115Z,99.99
2022-12-05T07:17:24.972Z,99.99
2022-12-05T07:18:24.911Z,99.99
2022-12-05T07:19:24.844Z,99.99
2022-12-05T07:20:27.900Z,99.99
2022-12-05T07:21:24.767Z,99.99
2022-12-05T07:22:24.700Z,99.99
2022-12-05T07:23:24.636Z,99.99
2022-12-05T07:24:24.563Z,99.99
2022-12-05T07:25:25.227Z,99.99
2022-12-05T07:26:24.603Z,99.99
2022-12-05T07:27:27.743Z,99.99
2022-12-05T07:28:24.285Z,99.99
2022-12-05T07:29:24.266Z,99.99
2022-12-05T07:30:24.167Z,99.99
2022-12-05T07:31:24.111Z,99.99
2022-12-05T07:32:24.102Z,99.99
2022-12-05T07:33:23.952Z,99.99
2022-12-05T07:34:23.864Z,99.99
2022-12-05T07:35:23.895Z,99.99
2022-12-05T07:36:23.762Z,99.99
2022-12-05T07:37:24.680Z,99.99
2022-12-05T07:38:23.604Z,99.99
2022-12-05T07:39:23.564Z,99.99
2022-12-05T07:40:23.536Z,99.99
2022-12-05T07:41:23.415Z,99.99
2022-12-05T07:42:23.375Z,99.99
2022-12-05T07:43:23.287Z,99.99
2022-12-05T07:44:23.252Z,99.99
2022-12-05T07:45:23.201Z,99.99
2022-12-05T07:46:23.131Z,99.99
2022-12-05T07:47:23.102Z,99.99
2022-12-05T07:48:22.985Z,99.99
2022-12-05T07:49:22.943Z,99.99
2022-12-05T07:50:22.887Z,99.99
2022-12-05T07:51:22.784Z,99.99
2022-12-05T07:52:22.730Z,99.99
2022-12-05T07:53:22.655Z,99.99
2022-12-05T07:54:22.565Z,99.99
2022-12-05T07:55:22.505Z,99.99
2022-12-05T07:56:22.477Z,99.99
2022-12-05T07:57:22.421Z,99.99
2022-12-05T07:58:22.329Z,99.99
2022-12-05T07:59:22.267Z,99.99
2022-12-05T08:00:22.178Z,99.99
2022-12-05T08:01:22.191Z,99.99
2022-12-05T08:02:22.201Z,99.99
2022-12-05T08:05:40.330Z,99.99
2022-12-05T08:06:41.327Z,99.99
2022-12-05T08:07:41.229Z,99.99
2022-12-05T08:08:41.148Z,99.99
2022-12-05T08:09:41.065Z,99.99
2022-12-05T08:10:41.027Z,99.99
2022-12-05T08:11:40.923Z,99.99
2022-12-05T08:12:40.893Z,99.99
2022-12-05T08:13:40.823Z,99.99
2022-12-05T08:14:40.866Z,99.99
2022-12-05T08:15:40.665Z,99.99
2022-12-05T08:16:40.710Z,99.99
2022-12-05T08:17:40.533Z,99.99
2022-12-05T08:18:40.533Z,99.99
2022-12-05T08:19:40.430Z,99.99
2022-12-05T08:20:40.395Z,99.99
2022-12-05T08:21:40.833Z,99.99
2022-12-05T08:22:42.854Z,99.99
2022-12-05T08:23:42.838Z,99.99
2022-12-05T08:24:41.343Z,99.99
2022-12-05T08:25:47.491Z,99.99
2022-12-05T08:26:40.098Z,99.99
2022-12-05T08:27:39.918Z,99.99
2022-12-05T08:28:39.907Z,99.99
2022-12-05T08:29:39.807Z,99.99
2022-12-05T08:30:39.778Z,99.99
2022-12-05T08:31:39.650Z,99.99
2022-12-05T08:32:39.674Z,99.99
2022-12-05T08:33:39.554Z,99.99
2022-12-05T08:34:39.478Z,99.99
2022-12-05T08:35:39.401Z,99.99
2022-12-05T08:36:39.349Z,99.99
2022-12-05T08:37:39.234Z,99.99
2022-12-05T08:38:39.173Z,99.99
2022-12-05T08:39:39.193Z,99.99
2022-12-05T08:40:39.109Z,99.99
2022-12-05T08:41:39.002Z,99.99
2022-12-05T08:42:38.914Z,99.99
2022-12-05T08:43:38.904Z,99.99
2022-12-05T08:44:38.808Z,99.99
2022-12-05T08:45:38.785Z,99.99
2022-12-05T08:46:38.787Z,99.99
2022-12-05T08:47:38.612Z,99.99
2022-12-05T08:48:38.554Z,99.99
2022-12-05T08:49:38.487Z,99.99
2022-12-05T08:50:38.443Z,99.99
2022-12-05T08:51:38.351Z,99.99
2022-12-05T08:52:38.304Z,99.99
2022-12-05T08:53:43.821Z,99.99
2022-12-05T08:54:38.160Z,99.99
2022-12-05T08:55:38.122Z,99.99
2022-12-05T08:56:38.042Z,99.99
2022-12-05T08:57:38.055Z,99.99
2022-12-05T08:58:39.123Z,99.99
2022-12-05T08:59:37.846Z,99.99
2022-12-05T09:00:37.795Z,99.99
2022-12-05T09:01:37.775Z,99.99
2022-12-05T09:02:37.652Z,99.99
2022-12-05T09:03:37.580Z,99.99
2022-12-05T09:04:37.558Z,99.99
2022-12-05T09:05:37.467Z,99.99
2022-12-05T09:06:37.391Z,99.99
2022-12-05T09:07:37.352Z,99.99
2022-12-05T09:08:37.277Z,99.99
2022-12-05T09:09:38.019Z,99.99
2022-12-05T09:10:37.251Z,99.99
2022-12-05T09:11:37.027Z,99.99
2022-12-05T09:12:37.028Z,99.99
2022-12-05T09:13:36.995Z,99.99
2022-12-05T09:14:36.868Z,99.99
2022-12-05T09:15:36.935Z,99.99
2022-12-05T09:16:38.420Z,99.99
2022-12-05T09:17:36.698Z,99.99
2022-12-05T09:18:36.733Z,99.99
2022-12-05T09:19:36.558Z,99.99
2022-12-05T09:20:36.487Z,99.99
2022-12-05T09:21:36.442Z,99.99
2022-12-05T09:22:36.357Z,99.99
2022-12-05T09:23:36.289Z,99.99
2022-12-05T09:24:36.289Z,99.99
2022-12-05T09:25:36.124Z,99.99
2022-12-05T09:26:36.083Z,99.99
2022-12-05T09:27:36.017Z,99.99
2022-12-05T09:28:35.984Z,99.99
2022-12-05T09:29:35.924Z,99.99
2022-12-05T09:30:35.803Z,99.99
2022-12-05T09:31:35.839Z,99.99
2022-12-05T09:32:35.733Z,99.99
2022-12-05T09:33:35.650Z,99.99
2022-12-05T09:34:57.997Z,99.99
2022-12-05T09:35:35.542Z,99.99
2022-12-05T09:36:35.444Z,99.99
2022-12-05T09:37:39.885Z,99.99
2022-12-05T09:38:35.362Z,99.99
2022-12-05T09:39:35.305Z,99.99
2022-12-05T09:40:35.215Z,99.99
2022-12-05T09:41:35.135Z,99.99
2022-12-05T09:42:35.046Z,99.99
2022-12-05T09:43:35.038Z,99.99
2022-12-05T09:44:34.946Z,99.99
2022-12-05T09:45:34.875Z,99.99
2022-12-05T09:46:35.883Z,99.99
2022-12-05T09:47:34.715Z,99.99
2022-12-05T09:48:34.652Z,99.99
2022-12-05T09:49:34.612Z,99.99
2022-12-05T09:50:34.528Z,99.99
2022-12-05T09:51:34.467Z,99.99
2022-12-05T09:54:52.828Z,99.99
2022-12-05T09:55:53.741Z,99.99
2022-12-05T09:56:53.665Z,99.99
2022-12-05T09:57:53.597Z,99.99
2022-12-05T09:58:53.501Z,99.99
2022-12-05T09:59:53.505Z,99.99
2022-12-05T10:00:53.399Z,99.99
2022-12-05T10:01:53.426Z,99.99
2022-12-05T10:02:53.291Z,99.99
2022-12-05T10:03:53.195Z,99.99
2022-12-05T10:04:57.121Z,99.99
2022-12-05T10:05:53.096Z,99.99
2022-12-05T10:06:53.004Z,99.99
2022-12-05T10:07:53.032Z,99.99
2022-12-05T10:08:52.874Z,99.99
2022-12-05T10:09:52.904Z,99.99
2022-12-05T10:10:52.745Z,99.99
2022-12-05T10:14:11.050Z,99.99
2022-12-05T10:15:11.965Z,99.99
2022-12-05T10:16:11.917Z,99.99
2022-12-05T10:17:11.809Z,99.99
2022-12-05T10:18:11.762Z,99.99
2022-12-05T10:19:11.752Z,99.99
2022-12-05T10:20:11.622Z,99.99
2022-12-05T10:21:11.565Z,99.99
2022-12-05T10:22:14.779Z,99.99
2022-12-05T10:23:23.123Z,99.99
2022-12-05T10:24:11.362Z,99.99
2022-12-05T10:25:11.360Z,99.99
2022-12-05T10:26:11.244Z,99.99
2022-12-05T10:27:11.478Z,99.99
2022-12-05T10:28:11.158Z,99.99
2022-12-05T10:29:11.057Z,99.99
2022-12-05T10:30:11.016Z,99.99
2022-12-05T10:31:11.078Z,99.99
2022-12-05T10:32:10.887Z,99.99
2022-12-05T10:33:10.761Z,99.99
2022-12-05T10:34:10.750Z,99.99
2022-12-05T10:35:10.679Z,99.99
2022-12-05T10:36:10.568Z,99.99
2022-12-05T10:37:10.571Z,99.99
2022-12-05T10:38:10.463Z,99.99
2022-12-05T10:39:11.665Z,99.99
2022-12-05T10:40:10.308Z,99.99
2022-12-05T10:41:10.907Z,99.99
2022-12-05T10:42:10.552Z,99.99
2022-12-05T10:43:10.157Z,99.99
2022-12-05T10:44:10.139Z,99.99
2022-12-05T10:45:10.007Z,99.99
2022-12-05T10:46:14.150Z,99.99
2022-12-05T10:47:09.974Z,99.99
2022-12-05T10:48:09.815Z,99.99
2022-12-05T10:49:09.776Z,99.99
2022-12-05T10:50:09.683Z,99.99
2022-12-05T10:51:09.651Z,99.99
2022-12-05T10:52:09.560Z,99.99
2022-12-05T10:53:09.461Z,99.99
2022-12-05T10:54:09.429Z,99.99
2022-12-05T10:55:09.366Z,99.99
2022-12-05T10:56:36.179Z,99.99
2022-12-05T10:57:09.277Z,99.99
2022-12-05T10:58:13.969Z,99.99
2022-12-05T10:59:09.109Z,99.99
2022-12-05T11:00:09.066Z,99.99
2022-12-05T11:01:09.647Z,99.99
2022-12-05T11:02:08.938Z,99.99
2022-12-05T11:03:08.893Z,99.99
2022-12-05T11:04:13.668Z,99.99
2022-12-05T11:05:08.774Z,99.99
2022-12-05T11:06:08.710Z,99.99
2022-12-05T11:07:08.619Z,99.99
2022-12-05T11:08:08.542Z,99.99
2022-12-05T11:09:08.457Z,99.99
2022-12-05T11:10:08.378Z,99.99
2022-12-05T11:11:08.304Z,99.99
2022-12-05T11:12:08.287Z,99.99
2022-12-05T11:13:08.938Z,99.99
2022-12-05T11:14:08.151Z,99.99
2022-12-05T11:15:08.102Z,99.99
2022-12-05T11:16:08.061Z,99.99
2022-12-05T11:17:07.937Z,99.99
2022-12-05T11:18:07.944Z,99.99
2022-12-05T11:19:07.834Z,99.99
2022-12-05T11:20:07.802Z,99.99
2022-12-05T11:21:07.669Z,99.99
2022-12-05T11:22:07.635Z,99.99
2022-12-05T11:23:07.540Z,99.99
2022-12-05T11:24:07.535Z,99.99
2022-12-05T11:25:07.410Z,99.99
2022-12-05T11:26:07.349Z,99.99
2022-12-05T11:27:07.521Z,99.99
2022-12-05T11:28:07.249Z,99.99
2022-12-05T11:29:07.204Z,99.99
2022-12-05T11:30:07.168Z,99.99
2022-12-05T11:31:07.059Z,99.99
2022-12-05T11:32:06.957Z,99.99
2022-12-05T11:33:06.890Z,99.99
2022-12-05T11:34:06.892Z,99.99
2022-12-05T11:35:06.745Z,99.99
2022-12-05T11:36:06.705Z,99.99
2022-12-05T11:37:06.703Z,99.99
2022-12-05T11:38:06.572Z,99.99
2022-12-05T11:39:06.513Z,99.99
2022-12-05T11:40:06.468Z,99.99
2022-12-05T11:41:06.360Z,99.99
2022-12-05T11:42:06.309Z,99.99
2022-12-05T11:43:06.283Z,99.99
2022-12-05T11:44:06.176Z,99.99
2022-12-05T11:45:06.233Z,99.99
2022-12-05T11:46:06.106Z,99.99
2022-12-05T11:47:06.048Z,99.99
2022-12-05T11:48:06.328Z,99.99
2022-12-05T11:49:05.860Z,99.99
2022-12-05T11:50:05.821Z,99.99
2022-12-05T11:51:05.764Z,99.99
2022-12-05T11:52:05.665Z,99.99
2022-12-05T11:53:05.595Z,99.99
2022-12-05T11:54:05.534Z,99.99
2022-12-05T11:55:06.420Z,99.99
2022-12-05T11:56:05.384Z,99.99
2022-12-05T11:57:05.368Z,99.99
2022-12-05T11:58:05.265Z,99.99
2022-12-05T11:59:05.219Z,99.99
2022-12-05T12:00:05.120Z,99.99
2022-12-05T12:01:07.642Z,99.99
2022-12-05T12:02:06.059Z,99.99
2022-12-05T12:03:05.120Z,99.99
2022-12-05T12:04:04.925Z,99.99
2022-12-05T12:05:04.843Z,99.99
2022-12-05T12:06:04.727Z,99.99
2022-12-05T12:07:06.936Z,99.99
2022-12-05T12:08:06.044Z,99.99
2022-12-05T12:09:06.830Z,99.99
2022-12-05T12:10:16.985Z,99.99
2022-12-05T12:12:42.021Z,99.99
2022-12-05T12:13:01.417Z,99.99
2022-12-05T12:13:49.745Z,99.99
2022-12-05T12:14:48.572Z,99.99
2022-12-05T12:15:48.176Z,99.99
2022-12-05T12:16:48.139Z,99.99
2022-12-05T12:17:48.024Z,99.99
2022-12-05T12:23:24.601Z,99.99
2022-12-05T12:24:25.518Z,99.99
2022-12-05T12:25:25.484Z,99.99
2022-12-05T12:26:25.428Z,99.99
2022-12-05T12:27:25.866Z,99.99
2022-12-05T12:28:25.339Z,99.99
2022-12-05T12:29:25.247Z,99.99
2022-12-05T12:30:25.177Z,99.99
2022-12-05T12:31:25.199Z,99.99
2022-12-05T12:32:25.221Z,99.99
2022-12-05T12:33:27.404Z,99.99
2022-12-05T12:34:25.289Z,99.99
2022-12-05T12:35:24.800Z,99.99
2022-12-05T12:36:24.738Z,99.99
2022-12-05T12:37:25.676Z,99.99
2022-12-05T12:38:24.979Z,99.99
2022-12-05T12:39:24.852Z,99.99
2022-12-05T12:40:25.135Z,99.99
2022-12-05T12:41:24.491Z,99.99
2022-12-05T12:42:25.619Z,99.99
2022-12-05T12:43:52.580Z,99.99
2022-12-05T12:44:25.463Z,99.99
2022-12-05T12:45:25.400Z,99.99
2022-12-05T12:46:25.465Z,99.99
2022-12-05T12:47:24.023Z,99.99
2022-12-05T12:48:23.991Z,99.99
2022-12-05T12:49:23.928Z,99.99
2022-12-05T12:50:23.916Z,99.99
2022-12-05T12:51:23.846Z,99.99
2022-12-05T12:52:23.840Z,99.99
2022-12-05T12:53:23.695Z,99.99
2022-12-05T12:54:47.078Z,99.99
2022-12-05T12:55:23.545Z,99.99
2022-12-05T12:56:23.468Z,99.99
2022-12-05T12:57:23.977Z,99.99
2022-12-05T12:58:23.342Z,99.99
2022-12-05T12:59:23.245Z,99.99
2022-12-05T13:00:23.276Z,99.99
2022-12-05T13:01:23.254Z,99.99
2022-12-05T13:02:23.159Z,99.99
2022-12-05T13:03:23.011Z,99.99
2022-12-05T13:04:22.999Z,99.99
2022-12-05T13:05:22.921Z,99.99
2022-12-05T13:06:22.826Z,99.99
2022-12-05T13:07:22.755Z,99.99
2022-12-05T13:08:22.747Z,99.99
2022-12-05T13:09:22.598Z,99.99